sensor_id;sensor_type;location;lat;lon;timestamp;P1;durP1;ratioP1;P2;durP2;ratioP2
26036;SDS011;13810;48.376;10.944;2022-09-24T00:00:23;16.48;;;10.52;;
26036;SDS011;13810;48.376;10.944;2022-09-24T00:00:54;15.13;;;10.70;;
26036;SDS011;13810;48.376;10.944;2022-09-24T00:01:27;19.10;;;10.60;;
26036;SDS011;13810;48.376;10.944;2022-09-24T00:02:00;18.05;;;10.93;;
26036;SDS011;13810;48.376;10.944;2022-09-24T00:02:31;14.70;;;10.60;;
26036;SDS011;13810;48.376;10.944;2022-09-24T00:03:01;16.92;;;10.63;;
26036;SDS011;13810;48.376;10.944;2022-09-24T00:03:32;13.48;;;9.93;;
26036;SDS011;13810;48.376;10.944;2022-09-24T00:04:04;15.23;;;10.95;;
26036;SDS011;13810;48.376;10.944;2022-09-24T00:04:40;15.93;;;10.32;;
26036;SDS011;13810;48.376;10.944;2022-09-24T00:05:11;16.77;;;10.38;;
26036;SDS011;13810;48.376;10.944;2022-09-24T00:05:42;15.90;;;9.93;;
26036;SDS011;13810;48.376;10.944;2022-09-24T00:06:12;17.10;;;10.75;;
26036;SDS011;13810;48.376;10.944;2022-09-24T00:06:44;19.10;;;10.82;;
26036;SDS011;13810;48.376;10.944;2022-09-24T00:07:16;19.02;;;11.70;;
26036;SDS011;13810;48.376;10.944;2022-09-24T00:07:46;28.25;;;14.88;;
26036;SDS011;13810;48.376;10.944;2022-09-24T00:08:18;23.58;;;14.68;;
26036;SDS011;13810;48.376;10.944;2022-09-24T00:08:50;22.60;;;13.55;;
26036;SDS011;13810;48.376;10.944;2022-09-24T00:09:25;23.08;;;12.98;;
26036;SDS011;13810;48.376;10.944;2022-09-24T00:09:56;19.10;;;12.90;;
26036;SDS011;13810;48.376;10.944;2022-09-24T00:10:27;26.58;;;13.60;;
26036;SDS011;13810;48.376;10.944;2022-09-24T00:11:00;18.80;;;12.35;;
26036;SDS011;13810;48.376;10.944;2022-09-24T00:11:32;19.70;;;12.73;;
26036;SDS011;13810;48.376;10.944;2022-09-24T00:12:03;19.10;;;11.95;;
26036;SDS011;13810;48.376;10.944;2022-09-24T00:12:33;28.40;;;16.17;;
26036;SDS011;13810;48.376;10.944;2022-09-24T00:13:05;29.33;;;15.75;;
26036;SDS011;13810;48.376;10.944;2022-09-24T00:13:37;20.58;;;13.45;;
26036;SDS011;13810;48.376;10.944;2022-09-24T00:14:08;20.70;;;12.48;;
26036;SDS011;13810;48.376;10.944;2022-09-24T00:14:39;19.65;;;12.60;;
26036;SDS011;13810;48.376;10.944;2022-09-24T00:15:10;16.80;;;12.10;;
26036;SDS011;13810;48.376;10.944;2022-09-24T00:15:42;17.73;;;10.90;;
26036;SDS011;13810;48.376;10.944;2022-09-24T00:16:14;19.00;;;11.30;;
26036;SDS011;13810;48.376;10.944;2022-09-24T00:16:46;14.57;;;10.98;;
26036;SDS011;13810;48.376;10.944;2022-09-24T00:17:17;19.25;;;11.75;;
26036;SDS011;13810;48.376;10.944;2022-09-24T00:17:48;16.98;;;10.88;;
26036;SDS011;13810;48.376;10.944;2022-09-24T00:18:18;19.17;;;10.98;;
26036;SDS011;13810;48.376;10.944;2022-09-24T00:18:50;23.75;;;11.65;;
26036;SDS011;13810;48.376;10.944;2022-09-24T00:19:22;16.23;;;10.35;;
26036;SDS011;13810;48.376;10.944;2022-09-24T00:19:53;17.13;;;11.00;;
26036;SDS011;13810;48.376;10.944;2022-09-24T00:20:23;16.92;;;11.23;;
26036;SDS011;13810;48.376;10.944;2022-09-24T00:20:54;18.75;;;10.40;;
26036;SDS011;13810;48.376;10.944;2022-09-24T00:21:26;17.45;;;10.50;;
26036;SDS011;13810;48.376;10.944;2022-09-24T00:21:58;15.63;;;11.10;;
26036;SDS011;13810;48.376;10.944;2022-09-24T00:22:31;15.48;;;11.10;;
26036;SDS011;13810;48.376;10.944;2022-09-24T00:23:01;20.88;;;10.40;;
26036;SDS011;13810;48.376;10.944;2022-09-24T00:23:32;21.60;;;10.50;;
26036;SDS011;13810;48.376;10.944;2022-09-24T00:24:04;15.50;;;10.10;;
26036;SDS011;13810;48.376;10.944;2022-09-24T00:24:37;17.45;;;11.23;;
26036;SDS011;13810;48.376;10.944;2022-09-24T00:25:26;14.88;;;9.85;;
26036;SDS011;13810;48.376;10.944;2022-09-24T00:26:16;15.27;;;9.85;;
26036;SDS011;13810;48.376;10.944;2022-09-24T00:27:05;14.13;;;9.77;;
26036;SDS011;13810;48.376;10.944;2022-09-24T00:27:36;15.95;;;10.15;;
26036;SDS011;13810;48.376;10.944;2022-09-24T00:28:07;19.13;;;10.15;;
26036;SDS011;13810;48.376;10.944;2022-09-24T00:28:38;13.90;;;9.90;;
26036;SDS011;13810;48.376;10.944;2022-09-24T00:29:09;16.70;;;9.82;;
26036;SDS011;13810;48.376;10.944;2022-09-24T00:29:41;16.65;;;10.68;;
26036;SDS011;13810;48.376;10.944;2022-09-24T00:30:12;16.35;;;10.27;;
26036;SDS011;13810;48.376;10.944;2022-09-24T00:30:43;16.10;;;10.63;;
26036;SDS011;13810;48.376;10.944;2022-09-24T00:31:14;14.13;;;10.43;;
26036;SDS011;13810;48.376;10.944;2022-09-24T00:31:44;17.98;;;11.18;;
26036;SDS011;13810;48.376;10.944;2022-09-24T00:32:15;15.75;;;9.73;;
26036;SDS011;13810;48.376;10.944;2022-09-24T00:32:46;17.55;;;10.68;;
26036;SDS011;13810;48.376;10.944;2022-09-24T00:33:17;18.08;;;10.55;;
26036;SDS011;13810;48.376;10.944;2022-09-24T00:33:47;14.27;;;9.68;;
26036;SDS011;13810;48.376;10.944;2022-09-24T00:34:21;17.92;;;10.27;;
26036;SDS011;13810;48.376;10.944;2022-09-24T00:34:51;17.55;;;10.77;;
26036;SDS011;13810;48.376;10.944;2022-09-24T00:35:23;14.90;;;10.20;;
26036;SDS011;13810;48.376;10.944;2022-09-24T00:35:58;15.75;;;10.23;;
26036;SDS011;13810;48.376;10.944;2022-09-24T00:36:33;16.52;;;9.55;;
26036;SDS011;13810;48.376;10.944;2022-09-24T00:37:04;16.25;;;9.18;;
26036;SDS011;13810;48.376;10.944;2022-09-24T00:37:34;15.10;;;10.57;;
26036;SDS011;13810;48.376;10.944;2022-09-24T00:38:05;14.82;;;10.30;;
26036;SDS011;13810;48.376;10.944;2022-09-24T00:38:36;15.82;;;9.90;;
26036;SDS011;13810;48.376;10.944;2022-09-24T00:39:07;19.50;;;10.15;;
26036;SDS011;13810;48.376;10.944;2022-09-24T00:39:37;19.52;;;10.40;;
26036;SDS011;13810;48.376;10.944;2022-09-24T00:40:08;17.50;;;10.80;;
26036;SDS011;13810;48.376;10.944;2022-09-24T00:40:39;19.58;;;10.65;;
26036;SDS011;13810;48.376;10.944;2022-09-24T00:41:10;14.10;;;11.38;;
26036;SDS011;13810;48.376;10.944;2022-09-24T00:41:41;18.15;;;10.55;;
26036;SDS011;13810;48.376;10.944;2022-09-24T00:42:14;17.67;;;10.52;;
26036;SDS011;13810;48.376;10.944;2022-09-24T00:42:48;14.85;;;10.25;;
26036;SDS011;13810;48.376;10.944;2022-09-24T00:43:57;16.42;;;11.68;;
26036;SDS011;13810;48.376;10.944;2022-09-24T00:45:13;13.70;;;9.95;;
26036;SDS011;13810;48.376;10.944;2022-09-24T00:45:44;15.25;;;10.02;;
26036;SDS011;13810;48.376;10.944;2022-09-24T00:46:45;15.35;;;10.88;;
26036;SDS011;13810;48.376;10.944;2022-09-24T00:47:50;19.10;;;11.27;;
26036;SDS011;13810;48.376;10.944;2022-09-24T00:48:21;15.35;;;10.55;;
26036;SDS011;13810;48.376;10.944;2022-09-24T00:48:53;16.63;;;9.95;;
26036;SDS011;13810;48.376;10.944;2022-09-24T00:49:28;16.27;;;10.43;;
26036;SDS011;13810;48.376;10.944;2022-09-24T00:50:14;17.80;;;10.77;;
26036;SDS011;13810;48.376;10.944;2022-09-24T00:50:47;14.18;;;10.32;;
26036;SDS011;13810;48.376;10.944;2022-09-24T00:51:19;16.48;;;10.50;;
26036;SDS011;13810;48.376;10.944;2022-09-24T00:51:52;19.58;;;10.38;;
26036;SDS011;13810;48.376;10.944;2022-09-24T00:52:22;17.42;;;10.60;;
26036;SDS011;13810;48.376;10.944;2022-09-24T00:52:54;16.05;;;10.70;;
26036;SDS011;13810;48.376;10.944;2022-09-24T00:53:28;16.25;;;10.77;;
26036;SDS011;13810;48.376;10.944;2022-09-24T00:54:16;21.70;;;11.35;;
26036;SDS011;13810;48.376;10.944;2022-09-24T00:54:50;16.67;;;11.25;;
26036;SDS011;13810;48.376;10.944;2022-09-24T00:55:20;20.05;;;11.35;;
26036;SDS011;13810;48.376;10.944;2022-09-24T00:55:52;15.77;;;11.48;;
26036;SDS011;13810;48.376;10.944;2022-09-24T00:56:25;16.38;;;10.70;;
26036;SDS011;13810;48.376;10.944;2022-09-24T00:56:57;16.95;;;10.32;;
26036;SDS011;13810;48.376;10.944;2022-09-24T00:57:30;17.42;;;10.35;;
26036;SDS011;13810;48.376;10.944;2022-09-24T00:58:03;17.23;;;10.52;;
26036;SDS011;13810;48.376;10.944;2022-09-24T00:58:36;15.23;;;10.50;;
26036;SDS011;13810;48.376;10.944;2022-09-24T00:59:07;24.88;;;11.77;;
26036;SDS011;13810;48.376;10.944;2022-09-24T00:59:41;16.73;;;11.02;;
26036;SDS011;13810;48.376;10.944;2022-09-24T01:00:13;18.98;;;10.35;;
26036;SDS011;13810;48.376;10.944;2022-09-24T01:00:44;20.00;;;10.82;;
26036;SDS011;13810;48.376;10.944;2022-09-24T01:01:16;17.00;;;10.13;;
26036;SDS011;13810;48.376;10.944;2022-09-24T01:01:48;16.20;;;10.50;;
26036;SDS011;13810;48.376;10.944;2022-09-24T01:02:22;17.08;;;11.23;;
26036;SDS011;13810;48.376;10.944;2022-09-24T01:03:15;15.30;;;10.23;;
26036;SDS011;13810;48.376;10.944;2022-09-24T01:03:47;18.50;;;9.82;;
26036;SDS011;13810;48.376;10.944;2022-09-24T01:04:19;17.60;;;10.27;;
26036;SDS011;13810;48.376;10.944;2022-09-24T01:04:50;16.27;;;10.55;;
26036;SDS011;13810;48.376;10.944;2022-09-24T01:05:21;23.42;;;10.68;;
26036;SDS011;13810;48.376;10.944;2022-09-24T01:05:52;17.15;;;11.65;;
26036;SDS011;13810;48.376;10.944;2022-09-24T01:06:24;19.30;;;10.55;;
26036;SDS011;13810;48.376;10.944;2022-09-24T01:06:55;16.85;;;11.18;;
26036;SDS011;13810;48.376;10.944;2022-09-24T01:07:26;21.15;;;11.40;;
26036;SDS011;13810;48.376;10.944;2022-09-24T01:07:57;22.70;;;11.40;;
26036;SDS011;13810;48.376;10.944;2022-09-24T01:08:28;16.23;;;10.23;;
26036;SDS011;13810;48.376;10.944;2022-09-24T01:08:58;19.55;;;11.48;;
26036;SDS011;13810;48.376;10.944;2022-09-24T01:09:29;16.90;;;11.23;;
26036;SDS011;13810;48.376;10.944;2022-09-24T01:10:00;18.05;;;10.43;;
26036;SDS011;13810;48.376;10.944;2022-09-24T01:15:40;20.02;;;11.50;;
26036;SDS011;13810;48.376;10.944;2022-09-24T01:17:02;19.00;;;11.20;;
26036;SDS011;13810;48.376;10.944;2022-09-24T01:18:06;17.23;;;10.60;;
26036;SDS011;13810;48.376;10.944;2022-09-24T01:18:50;17.83;;;11.05;;
26036;SDS011;13810;48.376;10.944;2022-09-24T01:25:13;17.25;;;10.13;;
26036;SDS011;13810;48.376;10.944;2022-09-24T01:26:36;20.63;;;10.73;;
26036;SDS011;13810;48.376;10.944;2022-09-24T01:27:19;20.15;;;10.10;;
26036;SDS011;13810;48.376;10.944;2022-09-24T01:28:43;16.05;;;10.80;;
26036;SDS011;13810;48.376;10.944;2022-09-24T01:29:38;14.50;;;9.45;;
26036;SDS011;13810;48.376;10.944;2022-09-24T01:30:22;19.20;;;10.73;;
26036;SDS011;13810;48.376;10.944;2022-09-24T01:30:57;17.35;;;10.43;;
26036;SDS011;13810;48.376;10.944;2022-09-24T01:31:43;19.08;;;10.73;;
26036;SDS011;13810;48.376;10.944;2022-09-24T01:32:22;17.27;;;10.77;;
26036;SDS011;13810;48.376;10.944;2022-09-24T01:33:19;16.02;;;9.80;;
26036;SDS011;13810;48.376;10.944;2022-09-24T01:33:54;16.38;;;10.43;;
26036;SDS011;13810;48.376;10.944;2022-09-24T01:34:31;17.42;;;11.48;;
26036;SDS011;13810;48.376;10.944;2022-09-24T01:36:03;15.38;;;10.38;;
26036;SDS011;13810;48.376;10.944;2022-09-24T01:36:37;15.52;;;10.88;;
26036;SDS011;13810;48.376;10.944;2022-09-24T01:37:10;17.58;;;11.80;;
26036;SDS011;13810;48.376;10.944;2022-09-24T01:37:46;16.63;;;11.27;;
26036;SDS011;13810;48.376;10.944;2022-09-24T01:38:22;17.70;;;11.73;;
26036;SDS011;13810;48.376;10.944;2022-09-24T01:38:57;18.58;;;11.48;;
26036;SDS011;13810;48.376;10.944;2022-09-24T01:39:30;20.85;;;11.25;;
26036;SDS011;13810;48.376;10.944;2022-09-24T01:40:02;16.30;;;10.65;;
26036;SDS011;13810;48.376;10.944;2022-09-24T01:40:35;18.48;;;11.82;;
26036;SDS011;13810;48.376;10.944;2022-09-24T01:41:08;16.52;;;10.60;;
26036;SDS011;13810;48.376;10.944;2022-09-24T01:41:40;18.67;;;11.57;;
26036;SDS011;13810;48.376;10.944;2022-09-24T01:42:13;18.52;;;11.30;;
26036;SDS011;13810;48.376;10.944;2022-09-24T01:42:45;16.70;;;12.18;;
26036;SDS011;13810;48.376;10.944;2022-09-24T01:43:17;21.85;;;12.30;;
26036;SDS011;13810;48.376;10.944;2022-09-24T01:43:51;19.50;;;11.38;;
26036;SDS011;13810;48.376;10.944;2022-09-24T01:44:22;17.75;;;11.30;;
26036;SDS011;13810;48.376;10.944;2022-09-24T01:44:54;18.70;;;11.38;;
26036;SDS011;13810;48.376;10.944;2022-09-24T01:45:26;19.05;;;12.38;;
26036;SDS011;13810;48.376;10.944;2022-09-24T01:46:04;24.70;;;12.55;;
26036;SDS011;13810;48.376;10.944;2022-09-24T01:46:39;18.83;;;10.77;;
26036;SDS011;13810;48.376;10.944;2022-09-24T01:47:16;19.80;;;10.95;;
26036;SDS011;13810;48.376;10.944;2022-09-24T01:47:51;17.63;;;11.80;;
26036;SDS011;13810;48.376;10.944;2022-09-24T01:48:22;19.55;;;12.13;;
26036;SDS011;13810;48.376;10.944;2022-09-24T01:48:53;18.83;;;11.57;;
26036;SDS011;13810;48.376;10.944;2022-09-24T01:49:24;19.65;;;11.30;;
26036;SDS011;13810;48.376;10.944;2022-09-24T01:49:56;19.27;;;11.85;;
26036;SDS011;13810;48.376;10.944;2022-09-24T01:50:27;20.13;;;11.05;;
26036;SDS011;13810;48.376;10.944;2022-09-24T01:51:46;16.10;;;10.38;;
26036;SDS011;13810;48.376;10.944;2022-09-24T01:52:22;16.45;;;10.90;;
26036;SDS011;13810;48.376;10.944;2022-09-24T01:52:59;17.40;;;10.93;;
26036;SDS011;13810;48.376;10.944;2022-09-24T01:53:37;14.10;;;9.85;;
26036;SDS011;13810;48.376;10.944;2022-09-24T01:54:34;16.58;;;11.27;;
26036;SDS011;13810;48.376;10.944;2022-09-24T01:55:11;16.17;;;10.18;;
26036;SDS011;13810;48.376;10.944;2022-09-24T01:55:45;20.05;;;10.75;;
26036;SDS011;13810;48.376;10.944;2022-09-24T01:56:24;15.05;;;10.38;;
26036;SDS011;13810;48.376;10.944;2022-09-24T01:57:06;14.77;;;10.68;;
26036;SDS011;13810;48.376;10.944;2022-09-24T01:58:03;18.10;;;9.98;;
26036;SDS011;13810;48.376;10.944;2022-09-24T01:59:45;14.85;;;10.35;;
26036;SDS011;13810;48.376;10.944;2022-09-24T02:00:19;16.17;;;10.82;;
26036;SDS011;13810;48.376;10.944;2022-09-24T02:00:52;15.55;;;10.48;;
26036;SDS011;13810;48.376;10.944;2022-09-24T02:01:34;14.80;;;9.75;;
26036;SDS011;13810;48.376;10.944;2022-09-24T02:02:17;15.68;;;10.32;;
26036;SDS011;13810;48.376;10.944;2022-09-24T02:02:59;15.15;;;9.88;;
26036;SDS011;13810;48.376;10.944;2022-09-24T02:03:38;19.13;;;11.48;;
26036;SDS011;13810;48.376;10.944;2022-09-24T02:04:15;18.77;;;10.50;;
26036;SDS011;13810;48.376;10.944;2022-09-24T02:04:50;17.55;;;10.57;;
26036;SDS011;13810;48.376;10.944;2022-09-24T02:05:31;18.08;;;11.45;;
26036;SDS011;13810;48.376;10.944;2022-09-24T02:06:55;16.13;;;9.95;;
26036;SDS011;13810;48.376;10.944;2022-09-24T02:07:37;15.50;;;10.20;;
26036;SDS011;13810;48.376;10.944;2022-09-24T02:08:28;16.60;;;9.27;;
26036;SDS011;13810;48.376;10.944;2022-09-24T02:10:02;16.83;;;10.02;;
26036;SDS011;13810;48.376;10.944;2022-09-24T02:10:35;14.23;;;9.35;;
26036;SDS011;13810;48.376;10.944;2022-09-24T02:11:12;15.52;;;9.60;;
26036;SDS011;13810;48.376;10.944;2022-09-24T02:11:46;15.95;;;10.63;;
26036;SDS011;13810;48.376;10.944;2022-09-24T02:12:28;15.23;;;10.00;;
26036;SDS011;13810;48.376;10.944;2022-09-24T02:13:09;16.27;;;10.35;;
26036;SDS011;13810;48.376;10.944;2022-09-24T02:14:36;15.50;;;9.20;;
26036;SDS011;13810;48.376;10.944;2022-09-24T02:15:15;17.55;;;10.65;;
26036;SDS011;13810;48.376;10.944;2022-09-24T02:15:52;15.40;;;10.18;;
26036;SDS011;13810;48.376;10.944;2022-09-24T02:16:37;16.50;;;10.50;;
26036;SDS011;13810;48.376;10.944;2022-09-24T02:17:18;17.05;;;10.13;;
26036;SDS011;13810;48.376;10.944;2022-09-24T02:17:52;12.90;;;9.63;;
26036;SDS011;13810;48.376;10.944;2022-09-24T02:18:28;22.38;;;11.30;;
26036;SDS011;13810;48.376;10.944;2022-09-24T02:19:04;14.30;;;9.77;;
26036;SDS011;13810;48.376;10.944;2022-09-24T02:19:39;14.15;;;9.85;;
26036;SDS011;13810;48.376;10.944;2022-09-24T02:20:12;14.77;;;9.98;;
26036;SDS011;13810;48.376;10.944;2022-09-24T02:20:46;15.35;;;10.10;;
26036;SDS011;13810;48.376;10.944;2022-09-24T02:21:18;19.70;;;10.30;;
26036;SDS011;13810;48.376;10.944;2022-09-24T02:21:50;14.25;;;9.70;;
26036;SDS011;13810;48.376;10.944;2022-09-24T02:22:21;17.33;;;10.77;;
26036;SDS011;13810;48.376;10.944;2022-09-24T02:22:55;18.90;;;10.75;;
26036;SDS011;13810;48.376;10.944;2022-09-24T02:23:26;20.48;;;11.57;;
26036;SDS011;13810;48.376;10.944;2022-09-24T02:24:00;13.65;;;9.75;;
26036;SDS011;13810;48.376;10.944;2022-09-24T02:24:46;18.13;;;10.15;;
26036;SDS011;13810;48.376;10.944;2022-09-24T02:25:32;14.50;;;9.77;;
26036;SDS011;13810;48.376;10.944;2022-09-24T02:26:07;15.07;;;9.32;;
26036;SDS011;13810;48.376;10.944;2022-09-24T02:26:38;17.23;;;10.80;;
26036;SDS011;13810;48.376;10.944;2022-09-24T02:27:09;15.07;;;10.27;;
26036;SDS011;13810;48.376;10.944;2022-09-24T02:27:40;18.15;;;10.20;;
26036;SDS011;13810;48.376;10.944;2022-09-24T02:28:10;18.17;;;10.13;;
26036;SDS011;13810;48.376;10.944;2022-09-24T02:28:41;14.85;;;9.90;;
26036;SDS011;13810;48.376;10.944;2022-09-24T02:29:12;16.40;;;10.07;;
26036;SDS011;13810;48.376;10.944;2022-09-24T02:29:43;17.15;;;10.35;;
26036;SDS011;13810;48.376;10.944;2022-09-24T02:30:15;15.15;;;10.40;;
26036;SDS011;13810;48.376;10.944;2022-09-24T02:30:47;14.82;;;10.02;;
26036;SDS011;13810;48.376;10.944;2022-09-24T02:31:30;20.55;;;10.25;;
26036;SDS011;13810;48.376;10.944;2022-09-24T02:32:04;13.70;;;9.93;;
26036;SDS011;13810;48.376;10.944;2022-09-24T02:32:38;15.20;;;10.35;;
26036;SDS011;13810;48.376;10.944;2022-09-24T02:33:10;17.70;;;10.50;;
26036;SDS011;13810;48.376;10.944;2022-09-24T02:34:05;12.93;;;9.55;;
26036;SDS011;13810;48.376;10.944;2022-09-24T02:34:53;21.13;;;10.30;;
26036;SDS011;13810;48.376;10.944;2022-09-24T02:35:28;17.83;;;9.38;;
26036;SDS011;13810;48.376;10.944;2022-09-24T02:35:58;17.48;;;9.52;;
26036;SDS011;13810;48.376;10.944;2022-09-24T02:36:30;17.95;;;9.68;;
26036;SDS011;13810;48.376;10.944;2022-09-24T02:37:37;16.42;;;10.35;;
26036;SDS011;13810;48.376;10.944;2022-09-24T02:38:16;15.02;;;9.95;;
26036;SDS011;13810;48.376;10.944;2022-09-24T02:38:47;16.05;;;9.52;;
26036;SDS011;13810;48.376;10.944;2022-09-24T02:39:18;17.13;;;10.35;;
26036;SDS011;13810;48.376;10.944;2022-09-24T02:39:49;14.70;;;9.43;;
26036;SDS011;13810;48.376;10.944;2022-09-24T02:40:20;15.73;;;9.38;;
26036;SDS011;13810;48.376;10.944;2022-09-24T02:40:51;20.27;;;9.90;;
26036;SDS011;13810;48.376;10.944;2022-09-24T02:41:23;18.42;;;10.32;;
26036;SDS011;13810;48.376;10.944;2022-09-24T02:41:55;16.58;;;10.95;;
26036;SDS011;13810;48.376;10.944;2022-09-24T02:42:27;17.83;;;10.25;;
26036;SDS011;13810;48.376;10.944;2022-09-24T02:43:00;18.40;;;10.07;;
26036;SDS011;13810;48.376;10.944;2022-09-24T02:43:30;17.63;;;11.25;;
26036;SDS011;13810;48.376;10.944;2022-09-24T02:44:02;18.92;;;10.40;;
26036;SDS011;13810;48.376;10.944;2022-09-24T02:44:32;17.33;;;10.98;;
26036;SDS011;13810;48.376;10.944;2022-09-24T02:45:05;15.20;;;10.40;;
26036;SDS011;13810;48.376;10.944;2022-09-24T02:45:36;13.85;;;9.40;;
26036;SDS011;13810;48.376;10.944;2022-09-24T02:46:07;15.23;;;10.02;;
26036;SDS011;13810;48.376;10.944;2022-09-24T02:46:39;15.25;;;10.00;;
26036;SDS011;13810;48.376;10.944;2022-09-24T02:47:10;14.60;;;9.43;;
26036;SDS011;13810;48.376;10.944;2022-09-24T02:47:41;14.80;;;10.07;;
26036;SDS011;13810;48.376;10.944;2022-09-24T02:48:11;16.95;;;10.40;;
26036;SDS011;13810;48.376;10.944;2022-09-24T02:48:42;19.83;;;10.52;;
26036;SDS011;13810;48.376;10.944;2022-09-24T02:49:13;15.20;;;10.05;;
26036;SDS011;13810;48.376;10.944;2022-09-24T02:49:44;17.38;;;9.60;;
26036;SDS011;13810;48.376;10.944;2022-09-24T02:50:14;14.20;;;9.63;;
26036;SDS011;13810;48.376;10.944;2022-09-24T02:50:45;16.83;;;10.43;;
26036;SDS011;13810;48.376;10.944;2022-09-24T02:51:16;15.75;;;9.88;;
26036;SDS011;13810;48.376;10.944;2022-09-24T02:51:47;16.08;;;9.85;;
26036;SDS011;13810;48.376;10.944;2022-09-24T02:52:17;14.95;;;9.30;;
26036;SDS011;13810;48.376;10.944;2022-09-24T02:52:48;16.35;;;9.93;;
26036;SDS011;13810;48.376;10.944;2022-09-24T02:53:19;13.95;;;10.15;;
26036;SDS011;13810;48.376;10.944;2022-09-24T02:53:49;15.48;;;9.43;;
26036;SDS011;13810;48.376;10.944;2022-09-24T02:54:20;16.48;;;9.60;;
26036;SDS011;13810;48.376;10.944;2022-09-24T02:54:51;13.40;;;10.05;;
26036;SDS011;13810;48.376;10.944;2022-09-24T02:55:22;16.45;;;10.00;;
26036;SDS011;13810;48.376;10.944;2022-09-24T02:55:53;12.30;;;9.15;;
26036;SDS011;13810;48.376;10.944;2022-09-24T02:56:23;16.92;;;10.65;;
26036;SDS011;13810;48.376;10.944;2022-09-24T02:56:54;18.20;;;10.70;;
26036;SDS011;13810;48.376;10.944;2022-09-24T02:57:25;14.07;;;10.40;;
26036;SDS011;13810;48.376;10.944;2022-09-24T02:57:55;15.55;;;10.60;;
26036;SDS011;13810;48.376;10.944;2022-09-24T02:58:27;19.40;;;10.35;;
26036;SDS011;13810;48.376;10.944;2022-09-24T02:58:58;15.98;;;10.82;;
26036;SDS011;13810;48.376;10.944;2022-09-24T02:59:31;20.45;;;10.57;;
26036;SDS011;13810;48.376;10.944;2022-09-24T03:00:02;16.15;;;10.65;;
26036;SDS011;13810;48.376;10.944;2022-09-24T03:00:35;18.38;;;10.52;;
26036;SDS011;13810;48.376;10.944;2022-09-24T03:01:05;15.07;;;10.77;;
26036;SDS011;13810;48.376;10.944;2022-09-24T03:01:36;20.08;;;10.90;;
26036;SDS011;13810;48.376;10.944;2022-09-24T03:02:07;19.85;;;11.50;;
26036;SDS011;13810;48.376;10.944;2022-09-24T03:02:37;19.17;;;10.95;;
26036;SDS011;13810;48.376;10.944;2022-09-24T03:03:08;17.42;;;10.82;;
26036;SDS011;13810;48.376;10.944;2022-09-24T03:03:38;16.23;;;11.07;;
26036;SDS011;13810;48.376;10.944;2022-09-24T03:04:09;20.70;;;11.02;;
26036;SDS011;13810;48.376;10.944;2022-09-24T03:04:40;16.55;;;10.82;;
26036;SDS011;13810;48.376;10.944;2022-09-24T03:05:11;17.05;;;10.70;;
26036;SDS011;13810;48.376;10.944;2022-09-24T03:05:42;14.20;;;10.63;;
26036;SDS011;13810;48.376;10.944;2022-09-24T03:06:13;16.35;;;10.50;;
26036;SDS011;13810;48.376;10.944;2022-09-24T03:06:44;16.92;;;10.93;;
26036;SDS011;13810;48.376;10.944;2022-09-24T03:07:14;18.35;;;10.85;;
26036;SDS011;13810;48.376;10.944;2022-09-24T03:07:45;13.98;;;9.25;;
26036;SDS011;13810;48.376;10.944;2022-09-24T03:08:16;15.10;;;11.05;;
26036;SDS011;13810;48.376;10.944;2022-09-24T03:08:46;15.52;;;10.82;;
26036;SDS011;13810;48.376;10.944;2022-09-24T03:09:17;18.38;;;11.23;;
26036;SDS011;13810;48.376;10.944;2022-09-24T03:09:48;19.63;;;10.07;;
26036;SDS011;13810;48.376;10.944;2022-09-24T03:10:18;15.52;;;10.13;;
26036;SDS011;13810;48.376;10.944;2022-09-24T03:10:49;14.73;;;9.45;;
26036;SDS011;13810;48.376;10.944;2022-09-24T03:11:20;15.52;;;10.15;;
26036;SDS011;13810;48.376;10.944;2022-09-24T03:11:52;16.70;;;10.65;;
26036;SDS011;13810;48.376;10.944;2022-09-24T03:12:22;17.13;;;10.98;;
26036;SDS011;13810;48.376;10.944;2022-09-24T03:12:54;12.45;;;9.43;;
26036;SDS011;13810;48.376;10.944;2022-09-24T03:13:25;19.50;;;10.57;;
26036;SDS011;13810;48.376;10.944;2022-09-24T03:13:56;18.52;;;10.27;;
26036;SDS011;13810;48.376;10.944;2022-09-24T03:14:28;13.75;;;9.48;;
26036;SDS011;13810;48.376;10.944;2022-09-24T03:14:59;15.55;;;9.77;;
26036;SDS011;13810;48.376;10.944;2022-09-24T03:15:30;19.88;;;10.18;;
26036;SDS011;13810;48.376;10.944;2022-09-24T03:16:01;13.65;;;9.70;;
26036;SDS011;13810;48.376;10.944;2022-09-24T03:16:32;13.18;;;10.00;;
26036;SDS011;13810;48.376;10.944;2022-09-24T03:17:03;15.60;;;9.43;;
26036;SDS011;13810;48.376;10.944;2022-09-24T03:17:34;13.55;;;10.00;;
26036;SDS011;13810;48.376;10.944;2022-09-24T03:18:08;13.63;;;9.68;;
26036;SDS011;13810;48.376;10.944;2022-09-24T03:18:38;15.23;;;8.85;;
26036;SDS011;13810;48.376;10.944;2022-09-24T03:19:09;14.65;;;10.18;;
26036;SDS011;13810;48.376;10.944;2022-09-24T03:19:40;15.60;;;9.60;;
26036;SDS011;13810;48.376;10.944;2022-09-24T03:20:10;15.60;;;9.77;;
26036;SDS011;13810;48.376;10.944;2022-09-24T03:20:41;14.27;;;9.77;;
26036;SDS011;13810;48.376;10.944;2022-09-24T03:21:13;17.23;;;10.15;;
26036;SDS011;13810;48.376;10.944;2022-09-24T03:21:45;17.60;;;9.93;;
26036;SDS011;13810;48.376;10.944;2022-09-24T03:22:16;12.07;;;9.05;;
26036;SDS011;13810;48.376;10.944;2022-09-24T03:22:50;15.30;;;9.52;;
26036;SDS011;13810;48.376;10.944;2022-09-24T03:23:21;15.10;;;9.43;;
26036;SDS011;13810;48.376;10.944;2022-09-24T03:23:54;15.07;;;9.38;;
26036;SDS011;13810;48.376;10.944;2022-09-24T03:24:28;16.45;;;9.65;;
26036;SDS011;13810;48.376;10.944;2022-09-24T03:24:58;13.15;;;8.90;;
26036;SDS011;13810;48.376;10.944;2022-09-24T03:25:30;16.23;;;9.25;;
26036;SDS011;13810;48.376;10.944;2022-09-24T03:26:00;18.48;;;9.77;;
26036;SDS011;13810;48.376;10.944;2022-09-24T03:26:31;15.50;;;9.85;;
26036;SDS011;13810;48.376;10.944;2022-09-24T03:27:02;17.80;;;9.98;;
26036;SDS011;13810;48.376;10.944;2022-09-24T03:27:33;13.90;;;9.95;;
26036;SDS011;13810;48.376;10.944;2022-09-24T03:28:04;17.63;;;10.30;;
26036;SDS011;13810;48.376;10.944;2022-09-24T03:28:35;16.27;;;10.70;;
26036;SDS011;13810;48.376;10.944;2022-09-24T03:29:09;13.10;;;9.25;;
26036;SDS011;13810;48.376;10.944;2022-09-24T03:29:41;18.60;;;10.75;;
26036;SDS011;13810;48.376;10.944;2022-09-24T03:30:30;18.25;;;10.93;;
26036;SDS011;13810;48.376;10.944;2022-09-24T03:31:20;14.35;;;9.85;;
26036;SDS011;13810;48.376;10.944;2022-09-24T03:31:53;16.67;;;10.15;;
26036;SDS011;13810;48.376;10.944;2022-09-24T03:32:24;14.50;;;10.38;;
26036;SDS011;13810;48.376;10.944;2022-09-24T03:32:55;15.52;;;10.02;;
26036;SDS011;13810;48.376;10.944;2022-09-24T03:34:03;15.55;;;9.18;;
26036;SDS011;13810;48.376;10.944;2022-09-24T03:34:37;16.17;;;9.45;;
26036;SDS011;13810;48.376;10.944;2022-09-24T03:35:11;15.43;;;10.40;;
26036;SDS011;13810;48.376;10.944;2022-09-24T03:35:42;17.88;;;10.30;;
26036;SDS011;13810;48.376;10.944;2022-09-24T03:36:45;16.65;;;10.40;;
26036;SDS011;13810;48.376;10.944;2022-09-24T03:37:15;16.92;;;9.23;;